sensor_id;sensor_type;location;lat;lon;timestamp;temperature;humidity
7240;DHT22;3661;53.288;10.458;2023-04-03T00:00:36;0.00;99.90
7240;DHT22;3661;53.288;10.458;2023-04-03T00:03:09;0.00;99.90
7240;DHT22;3661;53.288;10.458;2023-04-03T00:05:41;0.00;99.90
7240;DHT22;3661;53.288;10.458;2023-04-03T00:08:14;0.00;99.90
7240;DHT22;3661;53.288;10.458;2023-04-03T00:10:47;-0.10;99.90
7240;DHT22;3661;53.288;10.458;2023-04-03T00:13:19;-0.10;99.90
7240;DHT22;3661;53.288;10.458;2023-04-03T00:15:53;-0.20;99.90
7240;DHT22;3661;53.288;10.458;2023-04-03T00:18:25;-0.20;99.90
7240;DHT22;3661;53.288;10.458;2023-04-03T00:20:57;-0.20;99.90
7240;DHT22;3661;53.288;10.458;2023-04-03T00:23:29;-0.30;99.90
7240;DHT22;3661;53.288;10.458;2023-04-03T00:26:02;-0.30;99.90
7240;DHT22;3661;53.288;10.458;2023-04-03T00:28:34;-0.30;99.90
7240;DHT22;3661;53.288;10.458;2023-04-03T00:31:11;-0.30;99.90
7240;DHT22;3661;53.288;10.458;2023-04-03T00:33:46;-0.40;99.90
7240;DHT22;3661;53.288;10.458;2023-04-03T00:36:18;-0.40;99.90
7240;DHT22;3661;53.288;10.458;2023-04-03T00:38:51;-0.50;99.90
7240;DHT22;3661;53.288;10.458;2023-04-03T00:41:24;-0.50;99.90
7240;DHT22;3661;53.288;10.458;2023-04-03T00:43:56;-0.50;99.90
7240;DHT22;3661;53.288;10.458;2023-04-03T00:46:31;-0.50;99.90
7240;DHT22;3661;53.288;10.458;2023-04-03T00:49:03;-0.60;99.90
7240;DHT22;3661;53.288;10.458;2023-04-03T00:51:36;-0.60;99.90
7240;DHT22;3661;53.288;10.458;2023-04-03T00:54:09;-0.60;99.90
7240;DHT22;3661;53.288;10.458;2023-04-03T00:56:44;-0.70;99.90
7240;DHT22;3661;53.288;10.458;2023-04-03T00:59:20;-0.70;99.90
7240;DHT22;3661;53.288;10.458;2023-04-03T01:01:58;-0.70;99.90
7240;DHT22;3661;53.288;10.458;2023-04-03T01:04:34;-0.80;99.90
7240;DHT22;3661;53.288;10.458;2023-04-03T01:07:09;-0.80;99.90
7240;DHT22;3661;53.288;10.458;2023-04-03T01:09:43;-0.80;99.90
7240;DHT22;3661;53.288;10.458;2023-04-03T01:12:18;-0.90;99.90
7240;DHT22;3661;53.288;10.458;2023-04-03T01:14:53;-0.90;99.90
7240;DHT22;3661;53.288;10.458;2023-04-03T01:17:33;-0.90;99.90
7240;DHT22;3661;53.288;10.458;2023-04-03T01:23:37;-1.00;99.90
7240;DHT22;3661;53.288;10.458;2023-04-03T01:26:12;-1.00;99.90
7240;DHT22;3661;53.288;10.458;2023-04-03T01:28:44;-1.10;99.90
7240;DHT22;3661;53.288;10.458;2023-04-03T01:31:22;-1.10;99.90
7240;DHT22;3661;53.288;10.458;2023-04-03T01:33:57;-1.10;99.90
7240;DHT22;3661;53.288;10.458;2023-04-03T01:36:31;-1.20;99.90
7240;DHT22;3661;53.288;10.458;2023-04-03T01:39:03;-1.20;99.90
7240;DHT22;3661;53.288;10.458;2023-04-03T01:41:35;-1.20;99.90
7240;DHT22;3661;53.288;10.458;2023-04-03T01:44:07;-1.20;99.90
7240;DHT22;3661;53.288;10.458;2023-04-03T01:46:39;-1.20;99.90
7240;DHT22;3661;53.288;10.458;2023-04-03T01:49:14;-1.30;99.90
7240;DHT22;3661;53.288;10.458;2023-04-03T01:51:46;-1.30;99.90
7240;DHT22;3661;53.288;10.458;2023-04-03T01:54:18;-1.40;99.90
7240;DHT22;3661;53.288;10.458;2023-04-03T01:56:50;-1.40;99.90
7240;DHT22;3661;53.288;10.458;2023-04-03T01:59:22;-1.40;99.90
7240;DHT22;3661;53.288;10.458;2023-04-03T02:01:54;-1.40;99.90
7240;DHT22;3661;53.288;10.458;2023-04-03T02:04:31;-1.50;99.90
7240;DHT22;3661;53.288;10.458;2023-04-03T02:07:03;-1.50;99.90
7240;DHT22;3661;53.288;10.458;2023-04-03T02:09:35;-1.50;99.90
7240;DHT22;3661;53.288;10.458;2023-04-03T02:12:07;-1.60;99.90
7240;DHT22;3661;53.288;10.458;2023-04-03T02:14:39;-1.60;99.90
7240;DHT22;3661;53.288;10.458;2023-04-03T02:17:11;-1.60;99.90
7240;DHT22;3661;53.288;10.458;2023-04-03T02:19:45;-1.60;99.90
7240;DHT22;3661;53.288;10.458;2023-04-03T02:22:17;-1.60;99.90
7240;DHT22;3661;53.288;10.458;2023-04-03T02:24:51;-1.70;99.90
7240;DHT22;3661;53.288;10.458;2023-04-03T02:27:23;-1.70;99.90
7240;DHT22;3661;53.288;10.458;2023-04-03T02:29:55;-1.70;99.90
7240;DHT22;3661;53.288;10.458;2023-04-03T02:32:29;-1.70;99.90
7240;DHT22;3661;53.288;10.458;2023-04-03T02:35:04;-1.80;99.90
7240;DHT22;3661;53.288;10.458;2023-04-03T02:37:38;-1.80;99.90
7240;DHT22;3661;53.288;10.458;2023-04-03T02:40:11;-1.80;99.90
7240;DHT22;3661;53.288;10.458;2023-04-03T02:42:43;-1.80;99.90
7240;DHT22;3661;53.288;10.458;2023-04-03T02:45:15;-1.80;99.90
7240;DHT22;3661;53.288;10.458;2023-04-03T02:47:47;-1.80;99.90
7240;DHT22;3661;53.288;10.458;2023-04-03T02:50:21;-1.90;99.90
7240;DHT22;3661;53.288;10.458;2023-04-03T02:52:53;-1.90;99.90
7240;DHT22;3661;53.288;10.458;2023-04-03T02:55:26;-1.90;99.90
7240;DHT22;3661;53.288;10.458;2023-04-03T02:57:58;-1.90;99.90
7240;DHT22;3661;53.288;10.458;2023-04-03T03:00:30;-2.00;99.90
7240;DHT22;3661;53.288;10.458;2023-04-03T03:03:03;-2.00;99.90
7240;DHT22;3661;53.288;10.458;2023-04-03T03:05:36;-2.00;99.90
7240;DHT22;3661;53.288;10.458;2023-04-03T03:08:10;-2.00;99.90
7240;DHT22;3661;53.288;10.458;2023-04-03T03:10:45;-2.10;99.90
7240;DHT22;3661;53.288;10.458;2023-04-03T03:13:17;-2.10;99.90
7240;DHT22;3661;53.288;10.458;2023-04-03T03:15:50;-2.10;99.90
7240;DHT22;3661;53.288;10.458;2023-04-03T03:18:22;-2.10;99.90
7240;DHT22;3661;53.288;10.458;2023-04-03T03:20:58;-2.20;99.90
7240;DHT22;3661;53.288;10.458;2023-04-03T03:23:31;-2.20;99.90
7240;DHT22;3661;53.288;10.458;2023-04-03T03:26:08;-2.20;99.90
7240;DHT22;3661;53.288;10.458;2023-04-03T03:28:41;-2.20;99.90
7240;DHT22;3661;53.288;10.458;2023-04-03T03:31:13;-2.20;99.90
7240;DHT22;3661;53.288;10.458;2023-04-03T03:33:48;-2.30;99.90
7240;DHT22;3661;53.288;10.458;2023-04-03T03:36:22;-2.30;99.90
7240;DHT22;3661;53.288;10.458;2023-04-03T03:38:56;-2.30;99.90
7240;DHT22;3661;53.288;10.458;2023-04-03T03:41:28;-2.40;99.90
7240;DHT22;3661;53.288;10.458;2023-04-03T03:44:00;-2.40;99.90
7240;DHT22;3661;53.288;10.458;2023-04-03T03:46:32;-2.40;99.90
7240;DHT22;3661;53.288;10.458;2023-04-03T03:49:05;-2.40;99.90
7240;DHT22;3661;53.288;10.458;2023-04-03T03:51:39;-2.50;99.90
7240;DHT22;3661;53.288;10.458;2023-04-03T03:54:11;-2.50;99.90
7240;DHT22;3661;53.288;10.458;2023-04-03T03:56:45;-2.50;99.90
7240;DHT22;3661;53.288;10.458;2023-04-03T03:59:18;-2.50;99.90
7240;DHT22;3661;53.288;10.458;2023-04-03T04:01:50;-2.50;99.90
7240;DHT22;3661;53.288;10.458;2023-04-03T04:04:23;-2.60;99.90
7240;DHT22;3661;53.288;10.458;2023-04-03T04:06:57;-2.60;99.90
7240;DHT22;3661;53.288;10.458;2023-04-03T04:09:31;-2.60;99.90
7240;DHT22;3661;53.288;10.458;2023-04-03T04:12:03;-2.60;99.90
7240;DHT22;3661;53.288;10.458;2023-04-03T04:14:35;-2.60;99.90
7240;DHT22;3661;53.288;10.458;2023-04-03T04:17:08;-2.70;99.90
7240;DHT22;3661;53.288;10.458;2023-04-03T04:19:40;-2.70;99.90
7240;DHT22;3661;53.288;10.458;2023-04-03T04:22:17;-2.70;99.90
7240;DHT22;3661;53.288;10.458;2023-04-03T04:24:50;-2.70;99.90
7240;DHT22;3661;53.288;10.458;2023-04-03T04:27:22;-2.80;99.90
7240;DHT22;3661;53.288;10.458;2023-04-03T04:29:56;-2.80;99.90
7240;DHT22;3661;53.288;10.458;2023-04-03T04:32:28;-2.80;99.90
7240;DHT22;3661;53.288;10.458;2023-04-03T04:35:01;-2.80;99.90
7240;DHT22;3661;53.288;10.458;2023-04-03T04:37:35;-2.80;99.90
7240;DHT22;3661;53.288;10.458;2023-04-03T04:40:08;-2.80;99.90
7240;DHT22;3661;53.288;10.458;2023-04-03T04:42:41;-2.80;99.90
7240;DHT22;3661;53.288;10.458;2023-04-03T04:45:13;-2.80;99.90
7240;DHT22;3661;53.288;10.458;2023-04-03T04:47:47;-2.80;99.90
7240;DHT22;3661;53.288;10.458;2023-04-03T04:50:22;-2.70;99.90
7240;DHT22;3661;53.288;10.458;2023-04-03T04:52:56;-2.70;99.90
7240;DHT22;3661;53.288;10.458;2023-04-03T04:55:28;-2.60;99.90
7240;DHT22;3661;53.288;10.458;2023-04-03T04:58:00;-2.60;99.90
7240;DHT22;3661;53.288;10.458;2023-04-03T05:00:32;-2.50;99.90
7240;DHT22;3661;53.288;10.458;2023-04-03T05:03:05;-2.50;99.90
7240;DHT22;3661;53.288;10.458;2023-04-03T05:05:37;-2.50;99.90
7240;DHT22;3661;53.288;10.458;2023-04-03T05:08:11;-2.40;99.90
7240;DHT22;3661;53.288;10.458;2023-04-03T05:10:44;-2.40;99.90
7240;DHT22;3661;53.288;10.458;2023-04-03T05:13:17;-2.40;99.90
7240;DHT22;3661;53.288;10.458;2023-04-03T05:15:50;-2.40;99.90
7240;DHT22;3661;53.288;10.458;2023-04-03T05:18:23;-2.40;99.90
7240;DHT22;3661;53.288;10.458;2023-04-03T05:20:55;-2.30;99.90
7240;DHT22;3661;53.288;10.458;2023-04-03T05:23:29;-2.30;99.90
7240;DHT22;3661;53.288;10.458;2023-04-03T05:26:03;-2.30;99.90
7240;DHT22;3661;53.288;10.458;2023-04-03T05:28:35;-2.20;99.90
7240;DHT22;3661;53.288;10.458;2023-04-03T05:31:07;-2.20;99.90
7240;DHT22;3661;53.288;10.458;2023-04-03T05:33:39;-2.10;99.90
7240;DHT22;3661;53.288;10.458;2023-04-03T05:36:12;-2.10;99.90
7240;DHT22;3661;53.288;10.458;2023-04-03T05:38:45;-2.00;99.90
7240;DHT22;3661;53.288;10.458;2023-04-03T05:41:20;-2.00;99.90
7240;DHT22;3661;53.288;10.458;2023-04-03T05:43:52;-1.90;99.90
7240;DHT22;3661;53.288;10.458;2023-04-03T05:46:25;-1.80;99.90
7240;DHT22;3661;53.288;10.458;2023-04-03T05:48:58;-1.80;99.90
7240;DHT22;3661;53.288;10.458;2023-04-03T05:51:33;-1.70;99.90
7240;DHT22;3661;53.288;10.458;2023-04-03T05:54:12;-1.60;99.90
7240;DHT22;3661;53.288;10.458;2023-04-03T05:56:45;-1.60;99.90
7240;DHT22;3661;53.288;10.458;2023-04-03T05:59:17;-1.50;99.90
7240;DHT22;3661;53.288;10.458;2023-04-03T06:01:49;-1.40;99.90
7240;DHT22;3661;53.288;10.458;2023-04-03T06:04:21;-1.40;99.90
7240;DHT22;3661;53.288;10.458;2023-04-03T06:06:54;-1.30;99.90
7240;DHT22;3661;53.288;10.458;2023-04-03T06:09:29;-1.20;99.90
7240;DHT22;3661;53.288;10.458;2023-04-03T06:12:02;-1.10;99.90
7240;DHT22;3661;53.288;10.458;2023-04-03T06:14:34;-1.10;99.90
7240;DHT22;3661;53.288;10.458;2023-04-03T06:17:18;-1.00;99.90
7240;DHT22;3661;53.288;10.458;2023-04-03T06:19:53;-1.00;99.90
7240;DHT22;3661;53.288;10.458;2023-04-03T06:22:26;-0.90;99.90
7240;DHT22;3661;53.288;10.458;2023-04-03T06:25:16;-0.80;99.90
7240;DHT22;3661;53.288;10.458;2023-04-03T06:27:49;-0.80;99.90
7240;DHT22;3661;53.288;10.458;2023-04-03T06:30:37;-0.70;99.90
7240;DHT22;3661;53.288;10.458;2023-04-03T06:33:09;-0.60;99.90
7240;DHT22;3661;53.288;10.458;2023-04-03T06:35:45;-0.50;99.90
7240;DHT22;3661;53.288;10.458;2023-04-03T06:38:18;-0.40;99.90
7240;DHT22;3661;53.288;10.458;2023-04-03T06:40:55;-0.40;99.90
7240;DHT22;3661;53.288;10.458;2023-04-03T06:43:27;-0.30;99.90
7240;DHT22;3661;53.288;10.458;2023-04-03T06:45:59;-0.20;99.90
7240;DHT22;3661;53.288;10.458;2023-04-03T06:48:37;-0.10;99.90
7240;DHT22;3661;53.288;10.458;2023-04-03T06:51:17;0.00;99.90
7240;DHT22;3661;53.288;10.458;2023-04-03T06:53:56;0.00;99.90
7240;DHT22;3661;53.288;10.458;2023-04-03T06:56:30;0.10;99.90
7240;DHT22;3661;53.288;10.458;2023-04-03T06:59:05;0.20;99.90
7240;DHT22;3661;53.288;10.458;2023-04-03T07:01:37;0.30;99.90
7240;DHT22;3661;53.288;10.458;2023-04-03T07:04:12;0.30;99.90
7240;DHT22;3661;53.288;10.458;2023-04-03T07:06:49;0.40;99.90
7240;DHT22;3661;53.288;10.458;2023-04-03T07:09:23;0.50;99.90
7240;DHT22;3661;53.288;10.458;2023-04-03T07:11:58;0.60;99.90
7240;DHT22;3661;53.288;10.458;2023-04-03T07:14:30;0.70;99.90
7240;DHT22;3661;53.288;10.458;2023-04-03T07:17:02;0.80;99.90
7240;DHT22;3661;53.288;10.458;2023-04-03T07:19:34;0.90;99.90
7240;DHT22;3661;53.288;10.458;2023-04-03T07:22:11;1.00;99.90
7240;DHT22;3661;53.288;10.458;2023-04-03T07:24:43;1.10;99.90
7240;DHT22;3661;53.288;10.458;2023-04-03T07:27:17;1.20;99.90
7240;DHT22;3661;53.288;10.458;2023-04-03T07:29:49;1.30;99.90
7240;DHT22;3661;53.288;10.458;2023-04-03T07:32:21;1.40;99.90
7240;DHT22;3661;53.288;10.458;2023-04-03T07:34:53;1.50;99.90
7240;DHT22;3661;53.288;10.458;2023-04-03T07:37:25;1.60;99.90
7240;DHT22;3661;53.288;10.458;2023-04-03T07:39:58;1.70;99.90
7240;DHT22;3661;53.288;10.458;2023-04-03T07:42:34;1.80;99.90
7240;DHT22;3661;53.288;10.458;2023-04-03T07:45:07;1.90;99.90
7240;DHT22;3661;53.288;10.458;2023-04-03T07:47:39;2.00;99.90
7240;DHT22;3661;53.288;10.458;2023-04-03T07:50:12;2.10;99.90
7240;DHT22;3661;53.288;10.458;2023-04-03T07:52:44;2.20;99.90
7240;DHT22;3661;53.288;10.458;2023-04-03T07:55:17;2.30;99.90
7240;DHT22;3661;53.288;10.458;2023-04-03T07:57:51;2.40;99.90
7240;DHT22;3661;53.288;10.458;2023-04-03T08:00:23;2.60;99.90
7240;DHT22;3661;53.288;10.458;2023-04-03T08:02:55;2.70;99.90
7240;DHT22;3661;53.288;10.458;2023-04-03T08:05:30;2.80;99.90
7240;DHT22;3661;53.288;10.458;2023-04-03T08:08:02;3.00;99.90
7240;DHT22;3661;53.288;10.458;2023-04-03T08:10:34;3.10;99.90
7240;DHT22;3661;53.288;10.458;2023-04-03T08:13:08;3.20;99.90
7240;DHT22;3661;53.288;10.458;2023-04-03T08:15:40;3.30;99.90
7240;DHT22;3661;53.288;10.458;2023-04-03T08:18:12;3.50;99.90
7240;DHT22;3661;53.288;10.458;2023-04-03T08:20:54;3.60;99.90
7240;DHT22;3661;53.288;10.458;2023-04-03T08:23:26;3.80;99.90
7240;DHT22;3661;53.288;10.458;2023-04-03T08:25:58;3.90;99.90
7240;DHT22;3661;53.288;10.458;2023-04-03T08:28:32;4.00;99.90
7240;DHT22;3661;53.288;10.458;2023-04-03T08:31:05;4.20;99.90
7240;DHT22;3661;53.288;10.458;2023-04-03T08:33:38;4.30;99.90
7240;DHT22;3661;53.288;10.458;2023-04-03T08:36:17;4.50;99.90
7240;DHT22;3661;53.288;10.458;2023-04-03T08:38:51;4.60;99.90
7240;DHT22;3661;53.288;10.458;2023-04-03T08:41:29;4.80;99.90
7240;DHT22;3661;53.288;10.458;2023-04-03T08:44:13;4.90;99.90
7240;DHT22;3661;53.288;10.458;2023-04-03T08:47:04;5.00;99.90
7240;DHT22;3661;53.288;10.458;2023-04-03T08:49:45;5.20;99.90
7240;DHT22;3661;53.288;10.458;2023-04-03T08:52:27;5.30;99.90
7240;DHT22;3661;53.288;10.458;2023-04-03T08:55:05;5.40;99.90
7240;DHT22;3661;53.288;10.458;2023-04-03T08:57:40;5.60;99.90
7240;DHT22;3661;53.288;10.458;2023-04-03T09:00:19;5.70;99.90
7240;DHT22;3661;53.288;10.458;2023-04-03T09:02:52;5.90;99.90
7240;DHT22;3661;53.288;10.458;2023-04-03T09:05:36;6.10;99.90
7240;DHT22;3661;53.288;10.458;2023-04-03T09:08:21;6.20;99.90
7240;DHT22;3661;53.288;10.458;2023-04-03T09:11:04;6.40;99.90
7240;DHT22;3661;53.288;10.458;2023-04-03T09:13:44;6.50;99.90
7240;DHT22;3661;53.288;10.458;2023-04-03T09:16:28;6.60;99.90
7240;DHT22;3661;53.288;10.458;2023-04-03T09:19:12;6.80;99.90
7240;DHT22;3661;53.288;10.458;2023-04-03T09:21:47;6.90;99.90
7240;DHT22;3661;53.288;10.458;2023-04-03T09:24:22;7.00;99.90
7240;DHT22;3661;53.288;10.458;2023-04-03T09:26:57;7.20;99.90
7240;DHT22;3661;53.288;10.458;2023-04-03T09:29:31;7.30;99.90
7240;DHT22;3661;53.288;10.458;2023-04-03T09:32:21;7.40;99.90
7240;DHT22;3661;53.288;10.458;2023-04-03T09:35:00;7.50;99.90
7240;DHT22;3661;53.288;10.458;2023-04-03T09:46:18;8.00;99.90
7240;DHT22;3661;53.288;10.458;2023-04-03T09:48:58;8.20;99.90
7240;DHT22;3661;53.288;10.458;2023-04-03T09:51:30;8.20;99.90
7240;DHT22;3661;53.288;10.458;2023-04-03T09:54:25;8.40;99.90
7240;DHT22;3661;53.288;10.458;2023-04-03T09:57:02;8.40;99.90
7240;DHT22;3661;53.288;10.458;2023-04-03T09:59:37;8.50;99.90
7240;DHT22;3661;53.288;10.458;2023-04-03T10:02:30;8.60;99.90
7240;DHT22;3661;53.288;10.458;2023-04-03T10:05:27;8.70;99.90
7240;DHT22;3661;53.288;10.458;2023-04-03T10:08:20;8.70;99.90
7240;DHT22;3661;53.288;10.458;2023-04-03T10:11:14;8.90;99.90
7240;DHT22;3661;53.288;10.458;2023-04-03T10:13:52;9.00;99.90
7240;DHT22;3661;53.288;10.458;2023-04-03T10:16:27;9.10;99.90
7240;DHT22;3661;53.288;10.458;2023-04-03T10:22:04;9.30;99.90
7240;DHT22;3661;53.288;10.458;2023-04-03T10:24:48;9.40;97.60
7240;DHT22;3661;53.288;10.458;2023-04-03T10:27:27;9.40;96.60
7240;DHT22;3661;53.288;10.458;2023-04-03T10:30:13;9.40;96.60
7240;DHT22;3661;53.288;10.458;2023-04-03T10:32:58;9.50;96.80
7240;DHT22;3661;53.288;10.458;2023-04-03T10:35:39;9.60;96.90
7240;DHT22;3661;53.288;10.458;2023-04-03T10:38:22;9.60;95.70
7240;DHT22;3661;53.288;10.458;2023-04-03T10:41:01;9.60;95.70
7240;DHT22;3661;53.288;10.458;2023-04-03T10:43:39;9.60;95.50
7240;DHT22;3661;53.288;10.458;2023-04-03T10:46:18;9.70;95.10
7240;DHT22;3661;53.288;10.458;2023-04-03T10:49:05;9.70;95.00
7240;DHT22;3661;53.288;10.458;2023-04-03T10:51:43;9.80;94.70
7240;DHT22;3661;53.288;10.458;2023-04-03T10:54:22;9.80;95.00
7240;DHT22;3661;53.288;10.458;2023-04-03T10:56:56;9.90;95.60
7240;DHT22;3661;53.288;10.458;2023-04-03T10:59:33;10.00;94.40
7240;DHT22;3661;53.288;10.458;2023-04-03T11:02:14;10.00;93.60
7240;DHT22;3661;53.288;10.458;2023-04-03T11:04:53;10.10;93.30
7240;DHT22;3661;53.288;10.458;2023-04-03T11:07:34;10.10;93.10
7240;DHT22;3661;53.288;10.458;2023-04-03T11:10:23;10.10;92.60
7240;DHT22;3661;53.288;10.458;2023-04-03T11:12:59;10.10;92.30
7240;DHT22;3661;53.288;10.458;2023-04-03T11:15:33;10.10;92.30
7240;DHT22;3661;53.288;10.458;2023-04-03T11:18:08;10.00;91.80
7240;DHT22;3661;53.288;10.458;2023-04-03T11:20:46;9.90;91.90
7240;DHT22;3661;53.288;10.458;2023-04-03T11:23:24;9.80;91.80
7240;DHT22;3661;53.288;10.458;2023-04-03T11:26:07;9.80;91.80
7240;DHT22;3661;53.288;10.458;2023-04-03T11:28:40;9.70;91.70
7240;DHT22;3661;53.288;10.458;2023-04-03T11:31:23;9.60;91.60
7240;DHT22;3661;53.288;10.458;2023-04-03T11:34:07;9.60;91.80
7240;DHT22;3661;53.288;10.458;2023-04-03T11:36:44;9.50;91.70
7240;DHT22;3661;53.288;10.458;2023-04-03T11:39:23;9.40;91.90
7240;DHT22;3661;53.288;10.458;2023-04-03T11:42:14;9.30;91.80
7240;DHT22;3661;53.288;10.458;2023-04-03T11:44:48;9.30;92.10
7240;DHT22;3661;53.288;10.458;2023-04-03T11:47:45;9.30;92.20
7240;DHT22;3661;53.288;10.458;2023-04-03T11:50:46;9.20;92.10
7240;DHT22;3661;53.288;10.458;2023-04-03T11:53:43;9.30;92.50
7240;DHT22;3661;53.288;10.458;2023-04-03T11:56:31;9.40;92.90
7240;DHT22;3661;53.288;10.458;2023-04-03T11:59:23;9.50;92.60
7240;DHT22;3661;53.288;10.458;2023-04-03T12:01:56;9.60;92.00
7240;DHT22;3661;53.288;10.458;2023-04-03T12:04:29;9.60;91.50
7240;DHT22;3661;53.288;10.458;2023-04-03T12:07:20;9.60;90.80
7240;DHT22;3661;53.288;10.458;2023-04-03T12:09:59;9.50;90.50
7240;DHT22;3661;53.288;10.458;2023-04-03T12:12:37;9.50;90.50
7240;DHT22;3661;53.288;10.458;2023-04-03T12:18:56;9.50;90.90
7240;DHT22;3661;53.288;10.458;2023-04-03T12:24:38;9.50;91.00
7240;DHT22;3661;53.288;10.458;2023-04-03T12:27:25;9.40;90.70
7240;DHT22;3661;53.288;10.458;2023-04-03T12:30:15;9.40;91.00
7240;DHT22;3661;53.288;10.458;2023-04-03T12:33:01;9.30;91.10
7240;DHT22;3661;53.288;10.458;2023-04-03T12:35:37;9.30;91.20
7240;DHT22;3661;53.288;10.458;2023-04-03T12:41:27;9.30;90.90
7240;DHT22;3661;53.288;10.458;2023-04-03T12:47:02;9.10;90.80
7240;DHT22;3661;53.288;10.458;2023-04-03T12:49:41;9.10;90.70
7240;DHT22;3661;53.288;10.458;2023-04-03T12:52:32;9.00;90.60
7240;DHT22;3661;53.288;10.458;2023-04-03T12:55:14;9.00;90.60
7240;DHT22;3661;53.288;10.458;2023-04-03T12:57:47;8.90;90.20
7240;DHT22;3661;53.288;10.458;2023-04-03T13:00:31;8.90;90.50
7240;DHT22;3661;53.288;10.458;2023-04-03T13:03:06;9.00;90.90
7240;DHT22;3661;53.288;10.458;2023-04-03T13:05:39;9.00;90.50
7240;DHT22;3661;53.288;10.458;2023-04-03T13:08:13;9.10;90.50
7240;DHT22;3661;53.288;10.458;2023-04-03T13:10:54;9.20;90.80
7240;DHT22;3661;53.288;10.458;2023-04-03T13:13:27;9.30;90.80
7240;DHT22;3661;53.288;10.458;2023-04-03T13:16:08;9.40;91.00
7240;DHT22;3661;53.288;10.458;2023-04-03T13:18:50;9.50;90.90
7240;DHT22;3661;53.288;10.458;2023-04-03T13:21:25;9.60;90.60
7240;DHT22;3661;53.288;10.458;2023-04-03T13:24:01;9.70;90.70
7240;DHT22;3661;53.288;10.458;2023-04-03T13:26:35;9.80;90.40
7240;DHT22;3661;53.288;10.458;2023-04-03T13:29:20;9.80;90.50
7240;DHT22;3661;53.288;10.458;2023-04-03T13:31:55;10.00;90.20
7240;DHT22;3661;53.288;10.458;2023-04-03T13:34:32;10.10;89.20
7240;DHT22;3661;53.288;10.458;2023-04-03T13:37:11;10.10;87.70
7240;DHT22;3661;53.288;10.458;2023-04-03T13:40:01;10.20;88.40
7240;DHT22;3661;53.288;10.458;2023-04-03T13:42:37;10.20;88.00
7240;DHT22;3661;53.288;10.458;2023-04-03T13:45:22;10.30;88.20
7240;DHT22;3661;53.288;10.458;2023-04-03T13:48:09;10.30;88.00
7240;DHT22;3661;53.288;10.458;2023-04-03T13:50:53;10.40;87.40
7240;DHT22;3661;53.288;10.458;2023-04-03T13:53:27;10.40;86.60
7240;DHT22;3661;53.288;10.458;2023-04-03T13:56:08;10.40;86.90
7240;DHT22;3661;53.288;10.458;2023-04-03T13:58:53;10.40;86.40
7240;DHT22;3661;53.288;10.458;2023-04-03T14:01:36;10.30;86.10
7240;DHT22;3661;53.288;10.458;2023-04-03T14:04:17;10.30;85.60
7240;DHT22;3661;53.288;10.458;2023-04-03T14:06:50;10.20;85.60
7240;DHT22;3661;53.288;10.458;2023-04-03T14:09:25;10.20;86.00
7240;DHT22;3661;53.288;10.458;2023-04-03T14:12:04;10.10;86.00
7240;DHT22;3661;53.288;10.458;2023-04-03T14:14:38;10.10;85.70
7240;DHT22;3661;53.288;10.458;2023-04-03T14:17:16;10.10;85.80
7240;DHT22;3661;53.288;10.458;2023-04-03T14:19:50;10.10;86.30
7240;DHT22;3661;53.288;10.458;2023-04-03T14:22:25;10.10;85.90
7240;DHT22;3661;53.288;10.458;2023-04-03T14:24:59;10.10;84.50
7240;DHT22;3661;53.288;10.458;2023-04-03T14:27:38;10.00;84.20
7240;DHT22;3661;53.288;10.458;2023-04-03T14:30:15;10.00;84.20
7240;DHT22;3661;53.288;10.458;2023-04-03T14:32:48;10.00;85.00
7240;DHT22;3661;53.288;10.458;2023-04-03T14:35:21;10.00;85.30
7240;DHT22;3661;53.288;10.458;2023-04-03T14:37:54;10.00;84.60
7240;DHT22;3661;53.288;10.458;2023-04-03T14:40:27;10.00;84.50
7240;DHT22;3661;53.288;10.458;2023-04-03T14:43:01;10.00;84.60
7240;DHT22;3661;53.288;10.458;2023-04-03T14:45:33;10.10;84.40
7240;DHT22;3661;53.288;10.458;2023-04-03T14:48:09;10.10;83.90
7240;DHT22;3661;53.288;10.458;2023-04-03T14:50:45;10.10;83.50
7240;DHT22;3661;53.288;10.458;2023-04-03T14:53:17;10.10;83.40
7240;DHT22;3661;53.288;10.458;2023-04-03T14:55:53;10.00;83.40
7240;DHT22;3661;53.288;10.458;2023-04-03T14:58:27;10.00;83.70
7240;DHT22;3661;53.288;10.458;2023-04-03T15:00:59;10.00;83.90
7240;DHT22;3661;53.288;10.458;2023-04-03T15:03:31;10.00;83.50
7240;DHT22;3661;53.288;10.458;2023-04-03T15:06:04;10.00;81.90
7240;DHT22;3661;53.288;10.458;2023-04-03T15:08:36;9.90;83.50
7240;DHT22;3661;53.288;10.458;2023-04-03T15:11:08;9.90;82.60
7240;DHT22;3661;53.288;10.458;2023-04-03T15:13:42;9.90;82.70
7240;DHT22;3661;53.288;10.458;2023-04-03T15:16:17;9.90;82.90
7240;DHT22;3661;53.288;10.458;2023-04-03T15:18:50;10.00;82.30
7240;DHT22;3661;53.288;10.458;2023-04-03T15:21:22;10.10;81.70
7240;DHT22;3661;53.288;10.458;2023-04-03T15:23:54;10.10;81.50
7240;DHT22;3661;53.288;10.458;2023-04-03T15:26:26;10.10;80.40
7240;DHT22;3661;53.288;10.458;2023-04-03T15:29:03;10.10;80.10
7240;DHT22;3661;53.288;10.458;2023-04-03T15:31:35;10.10;80.30
7240;DHT22;3661;53.288;10.458;2023-04-03T15:34:07;10.10;78.90
7240;DHT22;3661;53.288;10.458;2023-04-03T15:36:39;10.10;78.70
7240;DHT22;3661;53.288;10.458;2023-04-03T15:39:14;10.10;79.50
7240;DHT22;3661;53.288;10.458;2023-04-03T15:41:47;10.10;80.10
7240;DHT22;3661;53.288;10.458;2023-04-03T15:44:23;10.20;80.90
7240;DHT22;3661;53.288;10.458;2023-04-03T15:46:55;10.20;80.80
7240;DHT22;3661;53.288;10.458;2023-04-03T15:49:27;10.20;79.50
7240;DHT22;3661;53.288;10.458;2023-04-03T15:52:00;10.20;79.30
7240;DHT22;3661;53.288;10.458;2023-04-03T15:54:32;10.20;79.60
7240;DHT22;3661;53.288;10.458;2023-04-03T15:57:04;10.20;79.50
7240;DHT22;3661;53.288;10.458;2023-04-03T15:59:38;10.20;80.30
7240;DHT22;3661;53.288;10.458;2023-04-03T16:02:12;10.20;81.50
7240;DHT22;3661;53.288;10.458;2023-04-03T16:04:45;10.30;81.70
7240;DHT22;3661;53.288;10.458;2023-04-03T16:07:17;10.30;82.30
7240;DHT22;3661;53.288;10.458;2023-04-03T16:09:49;10.40;84.20
7240;DHT22;3661;53.288;10.458;2023-04-03T16:12:22;10.70;86.70
7240;DHT22;3661;53.288;10.458;2023-04-03T16:14:55;10.90;88.90
7240;DHT22;3661;53.288;10.458;2023-04-03T16:17:28;11.10;89.70
7240;DHT22;3661;53.288;10.458;2023-04-03T16:20:00;11.20;90.30
7240;DHT22;3661;53.288;10.458;2023-04-03T16:22:34;11.40;90.90
7240;DHT22;3661;53.288;10.458;2023-04-03T16:25:08;11.50;91.30
7240;DHT22;3661;53.288;10.458;2023-04-03T16:27:40;11.60;91.50
7240;DHT22;3661;53.288;10.458;2023-04-03T16:30:14;11.70;91.80
7240;DHT22;3661;53.288;10.458;2023-04-03T16:32:47;11.70;91.70
7240;DHT22;3661;53.288;10.458;2023-04-03T16:35:19;11.80;91.80
7240;DHT22;3661;53.288;10.458;2023-04-03T16:37:51;11.80;91.80
7240;DHT22;3661;53.288;10.458;2023-04-03T16:40:24;11.70;91.90
7240;DHT22;3661;53.288;10.458;2023-04-03T16:42:56;11.70;92.00
7240;DHT22;3661;53.288;10.458;2023-04-03T16:45:29;11.70;92.20
7240;DHT22;3661;53.288;10.458;2023-04-03T16:48:01;11.70;92.40
7240;DHT22;3661;53.288;10.458;2023-04-03T16:50:33;11.70;92.30
7240;DHT22;3661;53.288;10.458;2023-04-03T16:53:05;11.70;92.20
7240;DHT22;3661;53.288;10.458;2023-04-03T16:55:39;11.60;92.30
7240;DHT22;3661;53.288;10.458;2023-04-03T16:58:11;11.50;92.20
7240;DHT22;3661;53.288;10.458;2023-04-03T17:00:46;11.40;91.80
7240;DHT22;3661;53.288;10.458;2023-04-03T17:03:18;11.40;91.80
7240;DHT22;3661;53.288;10.458;2023-04-03T17:05:50;11.30;91.80
7240;DHT22;3661;53.288;10.458;2023-04-03T17:08:23;11.20;92.00
7240;DHT22;3661;53.288;10.458;2023-04-03T17:10:55;11.10;92.20
7240;DHT22;3661;53.288;10.458;2023-04-03T17:13:27;11.00;92.00